createdAt,value
2023-08-14T00:00:18.221Z,7.57
2023-08-14T00:01:20.311Z,5.70
2023-08-14T00:02:23.669Z,7.63
2023-08-14T00:03:25.876Z,5.85
2023-08-14T00:04:27.951Z,12.98
2023-08-14T00:05:30.196Z,8.05
2023-08-14T00:06:32.279Z,5.07
2023-08-14T00:07:34.410Z,4.47
2023-08-14T00:08:36.482Z,5.53
2023-08-14T00:09:38.612Z,3.03
2023-08-14T00:10:40.821Z,6.90
2023-08-14T00:11:42.969Z,6.03
2023-08-14T00:12:45.348Z,10.52
2023-08-14T00:13:54.900Z,12.93
2023-08-14T00:14:56.964Z,5.45
2023-08-14T00:15:59.214Z,4.57
2023-08-14T00:17:01.420Z,4.38
2023-08-14T00:18:03.840Z,2.75
2023-08-14T00:19:06.031Z,7.63
2023-08-14T00:20:08.866Z,5.97
2023-08-14T00:21:11.631Z,7.13
2023-08-14T00:22:13.791Z,3.88
2023-08-14T00:23:15.896Z,4.03
2023-08-14T00:24:17.958Z,5.25
2023-08-14T00:25:20.081Z,2.30
2023-08-14T00:26:22.262Z,7.10
2023-08-14T00:27:26.260Z,2.53
2023-08-14T00:28:28.303Z,6.50
2023-08-14T00:29:30.405Z,4.88
2023-08-14T00:30:32.721Z,4.97
2023-08-14T00:31:34.915Z,5.38
2023-08-14T00:32:37.287Z,18.25
2023-08-14T00:33:39.720Z,7.55
2023-08-14T00:34:41.868Z,7.47
2023-08-14T00:35:44.228Z,3.65
2023-08-14T00:36:46.316Z,4.22
2023-08-14T00:37:49.071Z,8.38
2023-08-14T00:38:51.630Z,5.20
2023-08-14T00:39:53.774Z,3.22
2023-08-14T00:40:55.941Z,2.72
2023-08-14T00:41:58.053Z,3.38
2023-08-14T00:43:00.259Z,4.57
2023-08-14T00:44:02.488Z,2.65
2023-08-14T00:45:04.737Z,4.35
2023-08-14T00:46:07.661Z,2.15
2023-08-14T00:47:10.026Z,5.05
2023-08-14T00:48:12.131Z,2.95
2023-08-14T00:49:14.401Z,4.45
2023-08-14T00:50:16.921Z,3.42
2023-08-14T00:51:22.362Z,3.40
2023-08-14T00:52:25.188Z,6.18
2023-08-14T00:53:28.974Z,9.05
2023-08-14T00:54:31.058Z,5.00
2023-08-14T00:55:33.309Z,2.95
2023-08-14T00:56:35.860Z,3.22
2023-08-14T00:57:39.509Z,4.82
2023-08-14T00:58:41.722Z,4.13
2023-08-14T00:59:47.495Z,4.63
2023-08-14T01:00:49.820Z,6.55
2023-08-14T01:01:52.086Z,4.15
2023-08-14T01:02:54.359Z,2.85
2023-08-14T01:03:56.774Z,4.00
2023-08-14T01:04:58.997Z,4.43
2023-08-14T01:06:01.204Z,3.15
2023-08-14T01:07:04.909Z,5.65
2023-08-14T01:08:07.099Z,5.80
2023-08-14T01:09:09.399Z,7.30
2023-08-14T01:10:12.855Z,3.60
2023-08-14T01:11:21.553Z,6.85
2023-08-14T01:12:44.441Z,4.75
2023-08-14T01:13:56.027Z,5.22
2023-08-14T01:15:03.169Z,5.80
2023-08-14T01:16:11.332Z,3.53
2023-08-14T01:17:15.529Z,4.10
2023-08-14T01:18:19.011Z,7.00
2023-08-14T01:19:23.722Z,3.55
2023-08-14T01:20:27.227Z,2.92
2023-08-14T01:21:56.072Z,5.75
2023-08-14T01:23:04.617Z,7.05
2023-08-14T01:24:14.774Z,3.67
2023-08-14T01:25:26.591Z,4.18
2023-08-14T01:26:29.800Z,3.72
2023-08-14T01:27:32.058Z,3.08
2023-08-14T01:28:34.343Z,6.68
2023-08-14T01:29:40.044Z,2.95
2023-08-14T01:30:42.157Z,3.17
2023-08-14T01:31:44.539Z,3.88
2023-08-14T01:32:46.672Z,3.65
2023-08-14T01:33:48.768Z,3.80
2023-08-14T01:34:51.353Z,2.40
2023-08-14T01:36:02.895Z,4.38
2023-08-14T01:38:27.447Z,2.20
2023-08-14T01:39:36.883Z,25.83
2023-08-14T01:40:57.531Z,8.38
2023-08-14T01:42:18.721Z,5.60
2023-08-14T01:43:26.068Z,6.97
2023-08-14T01:44:28.353Z,7.35
2023-08-14T01:45:31.608Z,2.50
2023-08-14T01:46:35.767Z,2.35
2023-08-14T01:47:39.050Z,8.75
2023-08-14T01:48:41.470Z,2.75
2023-08-14T01:49:44.414Z,4.43
2023-08-14T01:50:46.827Z,5.43
2023-08-14T01:51:51.043Z,2.50
2023-08-14T01:52:53.209Z,4.78
2023-08-14T01:53:56.433Z,4.25
2023-08-14T01:55:04.223Z,3.13
2023-08-14T01:56:06.401Z,5.97
2023-08-14T01:57:09.143Z,2.53
2023-08-14T01:58:11.497Z,3.55
2023-08-14T01:59:13.772Z,4.50
2023-08-14T02:00:16.213Z,6.30
2023-08-14T02:01:20.119Z,2.70
2023-08-14T02:02:22.493Z,6.05
2023-08-14T02:03:26.941Z,4.28
2023-08-14T02:04:29.224Z,4.07
2023-08-14T02:05:31.506Z,3.30
2023-08-14T02:06:36.144Z,3.25
2023-08-14T02:07:38.417Z,5.80
2023-08-14T02:08:40.763Z,7.78
2023-08-14T02:09:42.931Z,3.95
2023-08-14T02:10:47.818Z,3.08
2023-08-14T02:11:50.083Z,3.38
2023-08-14T02:12:52.348Z,7.45
2023-08-14T02:13:54.571Z,3.83
2023-08-14T02:14:56.643Z,4.15
2023-08-14T02:15:58.775Z,5.57
2023-08-14T02:17:01.013Z,2.60
2023-08-14T02:18:03.379Z,5.20
2023-08-14T02:19:05.680Z,3.92
2023-08-14T02:20:08.708Z,6.70
2023-08-14T02:21:10.918Z,4.13
2023-08-14T02:22:13.181Z,7.65
2023-08-14T02:23:15.528Z,6.00
2023-08-14T02:24:17.704Z,4.90
2023-08-14T02:25:20.127Z,8.30
2023-08-14T02:26:22.279Z,3.05
2023-08-14T02:27:24.467Z,3.20
2023-08-14T02:28:26.728Z,4.13
2023-08-14T02:29:29.116Z,3.95
2023-08-14T02:30:31.278Z,8.02
2023-08-14T02:31:33.919Z,3.47
2023-08-14T02:32:36.209Z,5.78
2023-08-14T02:33:38.515Z,12.27
2023-08-14T02:34:50.701Z,4.47
2023-08-14T02:35:52.869Z,5.80
2023-08-14T02:36:55.058Z,4.55
2023-08-14T02:37:57.240Z,3.83
2023-08-14T02:38:59.407Z,5.00
2023-08-14T02:40:01.571Z,3.03
2023-08-14T02:41:04.739Z,7.78
2023-08-14T02:42:07.158Z,5.43
2023-08-14T02:43:09.357Z,5.32
2023-08-14T02:44:12.436Z,2.72
2023-08-14T02:45:14.673Z,5.20
2023-08-14T02:46:16.830Z,2.35
2023-08-14T02:47:19.313Z,3.00
2023-08-14T02:48:21.437Z,2.70
2023-08-14T02:49:23.569Z,4.22
2023-08-14T02:50:26.195Z,2.40
2023-08-14T02:51:28.448Z,3.13
2023-08-14T02:52:30.658Z,5.40
2023-08-14T02:53:32.890Z,4.15
2023-08-14T02:54:35.117Z,8.45
2023-08-14T02:55:37.369Z,3.75
2023-08-14T02:56:39.524Z,13.90
2023-08-14T02:57:41.890Z,3.10
2023-08-14T02:58:44.066Z,8.90
2023-08-14T02:59:46.289Z,3.83
2023-08-14T03:00:48.678Z,5.15
2023-08-14T03:01:50.847Z,4.15
2023-08-14T03:02:53.030Z,5.85
2023-08-14T03:03:55.281Z,5.88
2023-08-14T03:04:57.459Z,3.60
2023-08-14T03:06:00.005Z,8.38
2023-08-14T03:07:02.298Z,4.10
2023-08-14T03:08:05.377Z,6.53
2023-08-14T03:09:07.497Z,11.10
2023-08-14T03:10:09.624Z,10.90
2023-08-14T03:11:11.789Z,11.02
2023-08-14T03:12:14.000Z,12.93
2023-08-14T03:13:16.094Z,3.35
2023-08-14T03:14:18.178Z,3.35
2023-08-14T03:15:20.374Z,7.28
2023-08-14T03:16:22.523Z,5.10
2023-08-14T03:17:24.681Z,4.80
2023-08-14T03:18:27.001Z,3.13
2023-08-14T03:19:29.161Z,3.13
2023-08-14T03:20:31.326Z,17.65
2023-08-14T03:21:33.871Z,14.18
2023-08-14T03:22:36.154Z,12.32
2023-08-14T03:23:38.425Z,5.82
2023-08-14T03:24:40.495Z,3.70
2023-08-14T03:25:42.751Z,3.47
2023-08-14T03:26:45.554Z,2.47
2023-08-14T03:27:49.231Z,3.78
2023-08-14T03:28:51.462Z,3.17
2023-08-14T03:29:53.758Z,4.18
2023-08-14T03:30:56.036Z,4.93
2023-08-14T03:32:00.119Z,4.70
2023-08-14T03:33:02.289Z,4.28
2023-08-14T03:34:05.863Z,5.93
2023-08-14T03:35:08.376Z,4.95
2023-08-14T03:36:10.578Z,3.50
2023-08-14T03:37:13.377Z,4.03
2023-08-14T03:38:16.115Z,4.07
2023-08-14T03:39:19.318Z,4.13
2023-08-14T03:40:21.928Z,8.88
2023-08-14T03:41:24.136Z,5.88
2023-08-14T03:42:28.910Z,5.05
2023-08-14T03:43:31.069Z,5.35
2023-08-14T03:44:33.269Z,5.70
2023-08-14T03:45:35.834Z,4.68
2023-08-14T03:46:38.097Z,8.23
2023-08-14T03:47:40.631Z,3.33
2023-08-14T03:48:42.937Z,4.05
2023-08-14T03:49:45.050Z,3.60
2023-08-14T03:50:50.455Z,3.95
2023-08-14T03:51:52.578Z,6.85
2023-08-14T03:52:56.533Z,7.97
2023-08-14T03:53:58.831Z,5.45
2023-08-14T03:55:00.982Z,4.55
2023-08-14T03:56:03.337Z,7.65
2023-08-14T03:57:05.425Z,5.30
2023-08-14T03:58:07.491Z,3.15
2023-08-14T03:59:09.663Z,4.68
2023-08-14T04:00:12.220Z,4.80
2023-08-14T04:01:18.841Z,12.75
2023-08-14T04:02:21.774Z,17.55
2023-08-14T04:03:25.214Z,6.85
2023-08-14T04:04:27.470Z,13.13
2023-08-14T04:05:29.661Z,5.07
2023-08-14T04:06:31.901Z,3.78
2023-08-14T04:07:34.066Z,4.30
2023-08-14T04:08:36.274Z,26.15
2023-08-14T04:09:38.469Z,6.03
2023-08-14T04:10:40.629Z,4.85
2023-08-14T04:11:42.876Z,4.80
2023-08-14T04:12:44.913Z,5.70
2023-08-14T04:13:47.009Z,5.22
2023-08-14T04:14:50.487Z,4.65
2023-08-14T04:16:01.122Z,7.00
2023-08-14T04:17:03.718Z,5.15
2023-08-14T04:18:06.097Z,5.72
2023-08-14T04:19:18.558Z,5.53
2023-08-14T04:20:20.802Z,5.60
2023-08-14T04:21:22.924Z,3.22
2023-08-14T04:22:25.011Z,51.72
2023-08-14T04:23:27.799Z,5.40
2023-08-14T04:24:30.066Z,107.32
2023-08-14T04:25:32.330Z,236.90
2023-08-14T04:26:34.488Z,108.53
2023-08-14T04:27:40.464Z,47.65
2023-08-14T04:28:42.796Z,70.50
2023-08-14T04:29:44.925Z,7.22
2023-08-14T04:30:47.079Z,6.25
2023-08-14T04:31:49.241Z,3.20
2023-08-14T04:32:53.482Z,5.00
2023-08-14T04:33:56.877Z,7.18
2023-08-14T04:34:59.733Z,9.57
2023-08-14T04:36:02.154Z,17.63
2023-08-14T04:37:06.603Z,14.13
2023-08-14T04:38:11.886Z,6.05
2023-08-14T04:39:17.997Z,59.70
2023-08-14T04:40:20.154Z,34.60
2023-08-14T04:41:22.313Z,7.20
2023-08-14T04:42:24.400Z,9.68
2023-08-14T04:43:26.642Z,37.28
2023-08-14T04:44:28.766Z,4.25
2023-08-14T04:45:30.950Z,5.20
2023-08-14T04:47:43.653Z,3.15
2023-08-14T04:48:47.140Z,9.07
2023-08-14T04:49:49.559Z,4.78
2023-08-14T04:50:51.756Z,8.43
2023-08-14T04:51:53.930Z,7.63
2023-08-14T04:52:56.338Z,8.90
2023-08-14T04:53:59.612Z,4.68
2023-08-14T04:55:01.743Z,4.47
2023-08-14T04:56:08.284Z,16.02
2023-08-14T04:57:10.673Z,10.88
2023-08-14T04:58:12.991Z,5.03
2023-08-14T04:59:15.412Z,3.72
2023-08-14T05:00:18.557Z,2.95
2023-08-14T05:01:21.763Z,7.05
2023-08-14T05:02:29.731Z,6.18
2023-08-14T05:03:31.792Z,15.27
2023-08-14T05:04:34.241Z,11.30
2023-08-14T05:05:36.599Z,4.22
2023-08-14T05:06:38.983Z,13.15
2023-08-14T05:07:41.244Z,4.70
2023-08-14T05:08:43.377Z,8.68
2023-08-14T05:09:50.881Z,17.63
2023-08-14T05:10:53.545Z,8.68
2023-08-14T05:11:55.715Z,8.90
2023-08-14T05:12:58.024Z,8.98
2023-08-14T05:14:00.195Z,12.10
2023-08-14T05:15:02.425Z,9.45
2023-08-14T05:16:08.870Z,5.47
2023-08-14T05:17:13.155Z,4.55
2023-08-14T05:18:15.918Z,4.85
2023-08-14T05:19:18.276Z,2.70
2023-08-14T05:20:20.344Z,4.10
2023-08-14T05:21:22.477Z,2.97
2023-08-14T05:22:24.559Z,3.92
2023-08-14T05:23:26.957Z,6.43
2023-08-14T05:24:29.235Z,4.18
2023-08-14T05:25:31.276Z,3.97
2023-08-14T05:26:33.448Z,6.25
2023-08-14T05:27:40.324Z,3.25
2023-08-14T05:28:42.652Z,9.00
2023-08-14T05:29:45.350Z,3.58
2023-08-14T05:30:47.447Z,5.05
2023-08-14T05:31:49.514Z,7.95
2023-08-14T05:32:51.703Z,4.32
2023-08-14T05:33:53.913Z,8.43
2023-08-14T05:34:56.484Z,2.78
2023-08-14T05:35:58.681Z,3.10
2023-08-14T05:37:00.837Z,5.53
2023-08-14T05:38:02.947Z,7.40
2023-08-14T05:39:05.185Z,6.57
2023-08-14T05:40:07.665Z,6.07
2023-08-14T05:41:09.899Z,11.07
2023-08-14T05:42:12.126Z,7.95
2023-08-14T05:43:14.810Z,5.45
2023-08-14T05:44:16.898Z,4.00
2023-08-14T05:45:19.106Z,6.07
2023-08-14T05:46:25.364Z,2.88
2023-08-14T05:47:28.483Z,4.53
2023-08-14T05:48:30.595Z,5.70
2023-08-14T05:49:32.725Z,2.33
2023-08-14T05:50:35.209Z,2.95
2023-08-14T05:51:37.542Z,2.70
2023-08-14T05:52:39.847Z,2.13
2023-08-14T05:53:42.040Z,6.53
2023-08-14T05:54:44.159Z,2.78
2023-08-14T05:55:46.306Z,6.03
2023-08-14T05:56:49.458Z,15.23
2023-08-14T05:57:51.753Z,7.75
2023-08-14T05:58:59.263Z,3.30
2023-08-14T06:00:01.435Z,77.05
2023-08-14T06:01:04.027Z,114.55
2023-08-14T06:02:06.728Z,11.25
2023-08-14T06:03:10.179Z,7.80
2023-08-14T06:04:12.581Z,7.75
2023-08-14T06:05:14.963Z,6.22
2023-08-14T06:06:17.299Z,12.38
2023-08-14T06:07:19.421Z,208.50
2023-08-14T06:08:21.516Z,342.38
2023-08-14T06:09:24.591Z,247.18
2023-08-14T06:10:26.810Z,240.23
2023-08-14T06:11:28.951Z,93.57
2023-08-14T06:12:31.081Z,311.92
2023-08-14T06:13:33.373Z,37.72
2023-08-14T06:14:35.467Z,9.90
2023-08-14T06:15:40.174Z,8.57
2023-08-14T06:16:42.268Z,8.02
2023-08-14T06:17:44.568Z,8.02
2023-08-14T06:18:46.827Z,9.73
2023-08-14T06:19:48.882Z,7.07
2023-08-14T06:20:52.038Z,13.23
2023-08-14T06:21:54.203Z,13.63
2023-08-14T06:22:56.453Z,9.85
2023-08-14T06:23:58.510Z,6.82
2023-08-14T06:25:00.614Z,5.97
2023-08-14T06:26:02.946Z,5.38
2023-08-14T06:27:05.070Z,7.18
2023-08-14T06:28:07.444Z,7.63
2023-08-14T06:29:09.571Z,4.72
2023-08-14T06:30:12.445Z,5.53
2023-08-14T06:31:14.782Z,5.05
2023-08-14T06:32:17.262Z,10.77
2023-08-14T06:33:19.574Z,20.30
2023-08-14T06:34:21.662Z,8.02
2023-08-14T06:35:24.287Z,8.48
2023-08-14T06:36:26.751Z,9.00
2023-08-14T06:37:28.845Z,6.05
2023-08-14T06:38:31.018Z,4.95
2023-08-14T06:39:33.488Z,7.35
2023-08-14T06:40:35.649Z,5.90
2023-08-14T06:41:37.770Z,3.28
2023-08-14T06:42:41.512Z,4.35
2023-08-14T06:43:44.608Z,4.97
2023-08-14T06:44:46.677Z,7.28
2023-08-14T06:45:49.124Z,7.85
2023-08-14T06:46:52.063Z,3.80
2023-08-14T06:47:54.282Z,3.72
2023-08-14T06:48:56.405Z,10.38
2023-08-14T06:49:58.502Z,3.58
2023-08-14T06:51:00.774Z,3.88
2023-08-14T06:52:03.295Z,4.03
2023-08-14T06:53:05.405Z,5.32
2023-08-14T06:54:07.704Z,2.72
2023-08-14T06:55:09.890Z,8.02
2023-08-14T06:56:12.035Z,8.60
2023-08-14T06:57:14.140Z,6.80
2023-08-14T06:58:16.424Z,2.60
2023-08-14T06:59:18.592Z,3.00
2023-08-14T07:00:20.775Z,3.70
2023-08-14T07:01:23.155Z,8.07
2023-08-14T07:02:25.310Z,4.75
2023-08-14T07:03:27.409Z,4.22
2023-08-14T07:04:29.821Z,3.53
2023-08-14T07:05:31.831Z,3.50
2023-08-14T07:06:34.078Z,8.25
2023-08-14T07:07:37.202Z,3.50
2023-08-14T07:08:39.759Z,7.50
2023-08-14T07:09:41.946Z,7.88
2023-08-14T07:10:44.140Z,9.73
2023-08-14T07:11:46.308Z,8.65
2023-08-14T07:12:49.832Z,6.57
2023-08-14T07:13:54.003Z,16.40
2023-08-14T07:14:56.290Z,11.48
2023-08-14T07:15:59.040Z,6.82
2023-08-14T07:17:01.113Z,5.30
2023-08-14T07:18:03.930Z,4.05
2023-08-14T07:19:07.127Z,5.00
2023-08-14T07:20:11.342Z,6.10
2023-08-14T07:21:16.461Z,3.95
2023-08-14T07:22:18.979Z,4.63
2023-08-14T07:23:21.756Z,6.15
2023-08-14T07:24:23.940Z,5.47
2023-08-14T07:25:26.530Z,3.92
2023-08-14T07:26:28.740Z,10.40
2023-08-14T07:27:30.811Z,6.93
2023-08-14T07:28:32.826Z,3.75
2023-08-14T07:29:36.139Z,3.03
2023-08-14T07:30:39.436Z,2.25
2023-08-14T07:31:41.684Z,5.20
2023-08-14T07:32:43.897Z,7.03
2023-08-14T07:33:45.984Z,5.40
2023-08-14T07:34:48.555Z,6.85
2023-08-14T07:35:50.984Z,10.88
2023-08-14T07:36:53.347Z,2.70
2023-08-14T07:37:55.421Z,3.13
2023-08-14T07:38:57.579Z,7.03
2023-08-14T07:40:00.943Z,1.90
2023-08-14T07:41:03.155Z,2.90
2023-08-14T07:42:05.379Z,5.93
2023-08-14T07:43:09.147Z,3.30
2023-08-14T07:44:12.550Z,3.50
2023-08-14T07:45:14.737Z,4.00
2023-08-14T07:46:18.756Z,2.80
2023-08-14T07:47:20.935Z,3.65
2023-08-14T07:48:23.148Z,5.95
2023-08-14T07:49:25.265Z,1.77
2023-08-14T07:50:27.416Z,2.40
2023-08-14T07:51:29.557Z,2.22
2023-08-14T07:52:32.109Z,3.72
2023-08-14T07:53:34.415Z,4.43
2023-08-14T07:54:36.473Z,2.05
2023-08-14T07:55:39.615Z,2.97
2023-08-14T07:56:43.004Z,3.47
2023-08-14T07:57:47.598Z,1.95
2023-08-14T07:58:50.039Z,5.68
2023-08-14T07:59:52.249Z,2.00
2023-08-14T08:00:54.826Z,3.05
2023-08-14T08:01:57.060Z,2.70
2023-08-14T08:02:59.385Z,2.80
2023-08-14T08:04:01.614Z,4.22
2023-08-14T08:05:04.307Z,5.72
2023-08-14T08:06:06.961Z,2.88
2023-08-14T08:07:14.020Z,3.50
2023-08-14T08:08:16.464Z,1.65
2023-08-14T08:09:18.612Z,3.47
2023-08-14T08:10:21.183Z,4.38
2023-08-14T08:11:23.264Z,2.80
2023-08-14T08:12:25.398Z,1.90
2023-08-14T08:13:27.488Z,2.53
2023-08-14T08:14:29.887Z,5.88
2023-08-14T08:15:32.653Z,3.33
2023-08-14T08:16:37.750Z,10.68
2023-08-14T08:17:40.287Z,2.60
2023-08-14T08:18:42.667Z,3.88
2023-08-14T08:19:45.815Z,1.85
2023-08-14T08:20:47.982Z,3.60
2023-08-14T08:21:50.071Z,3.78
2023-08-14T08:22:52.233Z,3.33
2023-08-14T08:23:54.322Z,2.47
2023-08-14T08:24:56.819Z,2.80
2023-08-14T08:25:59.084Z,2.95
2023-08-14T08:27:01.274Z,1.92
2023-08-14T08:28:04.203Z,4.22
2023-08-14T08:29:09.337Z,2.30
2023-08-14T08:30:11.752Z,2.28
2023-08-14T08:31:15.238Z,2.47
2023-08-14T08:32:17.532Z,3.72
2023-08-14T08:33:26.888Z,2.10
2023-08-14T08:34:29.885Z,2.35
2023-08-14T08:35:32.255Z,3.97
2023-08-14T08:36:34.406Z,9.57
2023-08-14T08:37:36.565Z,2.60
2023-08-14T08:38:40.579Z,3.15
2023-08-14T08:39:43.897Z,1.63
2023-08-14T08:40:48.187Z,2.72
2023-08-14T08:41:50.444Z,6.40
2023-08-14T08:42:52.920Z,1.92
2023-08-14T08:44:00.525Z,4.25
2023-08-14T08:45:04.102Z,2.50
2023-08-14T08:46:09.271Z,3.53
2023-08-14T08:47:12.285Z,3.03
2023-08-14T08:48:18.108Z,2.17
2023-08-14T08:49:20.414Z,2.28
2023-08-14T08:50:22.541Z,3.00
2023-08-14T08:51:25.345Z,8.00
2023-08-14T08:52:27.625Z,3.25
2023-08-14T08:53:29.971Z,2.13
2023-08-14T08:54:32.282Z,3.15
2023-08-14T08:55:34.605Z,4.18
2023-08-14T08:56:37.521Z,2.80
2023-08-14T08:57:40.259Z,3.13
2023-08-14T08:58:42.785Z,3.85
2023-08-14T08:59:45.144Z,2.85
2023-08-14T09:00:47.370Z,5.60
2023-08-14T09:01:49.861Z,2.80
2023-08-14T09:02:52.470Z,4.43
2023-08-14T09:03:54.757Z,3.28
2023-08-14T09:04:57.245Z,1.88
2023-08-14T09:05:59.728Z,2.85
2023-08-14T09:07:01.952Z,3.47
2023-08-14T09:08:04.737Z,2.75
2023-08-14T09:09:07.820Z,2.10
2023-08-14T09:10:10.082Z,2.50
2023-08-14T09:11:12.367Z,2.00
2023-08-14T09:12:14.559Z,2.15
2023-08-14T09:13:16.803Z,4.90
2023-08-14T09:14:19.206Z,2.35
2023-08-14T09:15:23.897Z,6.60
2023-08-14T09:16:28.798Z,3.63
2023-08-14T09:17:31.017Z,3.17
2023-08-14T09:18:33.244Z,2.30
2023-08-14T09:19:35.467Z,2.78
2023-08-14T09:20:38.126Z,2.55
2023-08-14T09:21:44.449Z,2.28
2023-08-14T09:22:46.776Z,3.13
2023-08-14T09:23:48.922Z,3.00
2023-08-14T09:24:51.025Z,4.25
2023-08-14T09:25:53.383Z,2.92
2023-08-14T09:26:55.705Z,4.20
2023-08-14T09:27:58.762Z,2.92
2023-08-14T09:29:00.959Z,3.35
2023-08-14T09:30:03.236Z,4.63
2023-08-14T09:31:09.218Z,2.75
2023-08-14T09:32:11.633Z,3.17
2023-08-14T09:33:15.461Z,2.65
2023-08-14T09:34:20.470Z,3.28
2023-08-14T09:35:22.720Z,2.45
2023-08-14T09:36:25.766Z,3.65
2023-08-14T09:37:28.672Z,2.42
2023-08-14T09:38:32.583Z,3.10
2023-08-14T09:39:34.678Z,2.80
2023-08-14T09:40:37.030Z,3.88
2023-08-14T09:41:39.240Z,2.20
2023-08-14T09:42:41.628Z,3.60
2023-08-14T09:43:45.478Z,2.75
2023-08-14T09:44:47.565Z,3.55
2023-08-14T09:45:49.915Z,2.65
2023-08-14T09:46:53.527Z,4.38
2023-08-14T09:47:59.901Z,6.35
2023-08-14T09:49:03.207Z,2.78
2023-08-14T09:50:07.747Z,2.08
2023-08-14T09:51:17.139Z,3.70
2023-08-14T09:52:21.158Z,14.60
2023-08-14T09:53:23.460Z,2.90
2023-08-14T09:54:32.960Z,4.53
2023-08-14T09:55:35.800Z,3.17
2023-08-14T09:56:38.498Z,4.90
2023-08-14T09:57:41.762Z,1.90
2023-08-14T09:58:44.068Z,3.40
2023-08-14T09:59:46.219Z,7.22
2023-08-14T10:00:49.143Z,4.80
2023-08-14T10:01:51.959Z,3.03
2023-08-14T10:02:55.786Z,6.55
2023-08-14T10:03:58.486Z,3.25
2023-08-14T10:05:01.566Z,2.70
2023-08-14T10:06:04.913Z,2.33
2023-08-14T10:07:08.088Z,3.88
2023-08-14T10:08:10.639Z,2.22
2023-08-14T10:09:13.017Z,2.22
2023-08-14T10:10:16.597Z,3.35
2023-08-14T10:11:20.269Z,2.90
2023-08-14T10:12:24.462Z,2.08
2023-08-14T10:13:27.335Z,2.47
2023-08-14T10:14:30.737Z,4.95
2023-08-14T10:15:38.518Z,3.95
2023-08-14T10:16:42.747Z,3.50
2023-08-14T10:18:06.005Z,2.80
2023-08-14T10:19:10.892Z,2.30
2023-08-14T10:20:16.344Z,3.25
2023-08-14T10:21:18.876Z,3.90
2023-08-14T10:22:21.852Z,3.97
2023-08-14T10:23:24.226Z,2.33
2023-08-14T10:24:29.147Z,2.47
2023-08-14T10:25:31.761Z,2.75
2023-08-14T10:26:34.663Z,2.67
2023-08-14T10:27:37.011Z,2.72
2023-08-14T10:28:39.287Z,3.80
2023-08-14T10:29:42.106Z,3.05
2023-08-14T10:30:44.533Z,2.28
2023-08-14T10:31:48.306Z,2.50
2023-08-14T10:32:51.888Z,3.75
2023-08-14T10:33:54.753Z,3.08
2023-08-14T10:34:58.111Z,2.92
2023-08-14T10:36:00.926Z,2.22
2023-08-14T10:37:03.113Z,2.03
2023-08-14T10:38:10.757Z,5.45
2023-08-14T10:40:20.961Z,2.33
2023-08-14T10:41:24.065Z,4.57
2023-08-14T10:42:26.327Z,3.33
2023-08-14T10:43:30.339Z,4.82
2023-08-14T10:44:34.047Z,1.95
2023-08-14T10:45:36.248Z,2.20
2023-08-14T10:46:41.990Z,2.13
2023-08-14T10:47:44.296Z,2.13
2023-08-14T10:48:49.821Z,2.00
2023-08-14T10:49:52.410Z,2.67
2023-08-14T10:51:03.654Z,4.50
2023-08-14T10:52:06.052Z,2.03
2023-08-14T10:53:08.174Z,2.13
2023-08-14T10:54:13.938Z,1.90
2023-08-14T10:55:19.722Z,1.80
2023-08-14T10:56:24.472Z,2.40
2023-08-14T10:57:34.235Z,7.93
2023-08-14T10:58:37.340Z,2.25
2023-08-14T10:59:40.676Z,2.08
2023-08-14T11:00:45.861Z,1.95
2023-08-14T11:01:56.493Z,4.55
2023-08-14T11:04:07.202Z,1.80
2023-08-14T11:05:15.562Z,3.15
2023-08-14T11:06:24.858Z,2.38
2023-08-14T11:07:30.456Z,1.92
2023-08-14T11:08:32.648Z,2.45
2023-08-14T11:09:37.093Z,2.10
2023-08-14T11:10:40.346Z,4.30
2023-08-14T11:11:48.795Z,6.38
2023-08-14T11:12:51.652Z,3.95
2023-08-14T11:13:55.190Z,3.90
2023-08-14T11:14:58.374Z,2.75
2023-08-14T11:16:00.585Z,2.50
2023-08-14T11:17:03.303Z,5.78
2023-08-14T11:18:12.013Z,12.05
2023-08-14T11:19:14.319Z,5.45
2023-08-14T11:20:16.832Z,9.35
2023-08-14T11:21:30.854Z,3.30
2023-08-14T11:22:34.065Z,5.05
2023-08-14T11:23:36.317Z,2.33
2023-08-14T11:24:38.997Z,3.22
2023-08-14T11:25:41.335Z,3.30
2023-08-14T11:26:43.601Z,5.80
2023-08-14T11:27:49.963Z,8.13
2023-08-14T11:28:52.106Z,2.33
2023-08-14T11:29:57.757Z,3.38
2023-08-14T11:31:02.883Z,4.70
2023-08-14T11:32:05.733Z,1.90
2023-08-14T11:33:08.041Z,1.95
2023-08-14T11:34:10.373Z,2.63
2023-08-14T11:35:12.742Z,2.40
2023-08-14T11:36:14.744Z,2.03
2023-08-14T11:37:18.246Z,1.88
2023-08-14T11:38:21.628Z,1.85
2023-08-14T11:39:24.047Z,1.90
2023-08-14T11:40:26.374Z,3.55
2023-08-14T11:41:32.192Z,2.03
2023-08-14T11:42:35.271Z,2.05
2023-08-14T11:43:40.265Z,2.20
2023-08-14T11:44:42.716Z,2.95
2023-08-14T11:45:44.945Z,3.45
2023-08-14T11:46:48.159Z,7.25
2023-08-14T11:47:50.531Z,2.22
2023-08-14T11:48:53.625Z,2.30
2023-08-14T11:49:56.580Z,4.20
2023-08-14T11:51:00.081Z,2.78
2023-08-14T11:52:03.205Z,2.38
2023-08-14T11:53:05.411Z,3.25
2023-08-14T11:54:08.565Z,2.92
2023-08-14T11:55:10.941Z,8.57
2023-08-14T11:56:13.550Z,3.03
2023-08-14T11:57:15.877Z,2.00
2023-08-14T11:58:19.156Z,3.40
2023-08-14T11:59:21.273Z,4.25
2023-08-14T12:00:30.110Z,1.70
2023-08-14T12:01:36.775Z,2.03
2023-08-14T12:02:42.521Z,2.05
2023-08-14T12:03:44.690Z,3.70
2023-08-14T12:04:47.345Z,2.17
2023-08-14T12:06:00.926Z,2.20
2023-08-14T12:07:03.022Z,4.68
2023-08-14T12:08:05.381Z,6.30
2023-08-14T12:09:09.324Z,2.92
2023-08-14T12:10:16.275Z,3.42
2023-08-14T12:11:18.623Z,4.38
2023-08-14T12:12:22.870Z,1.98
2023-08-14T12:13:25.510Z,2.63
2023-08-14T12:14:38.322Z,3.88
2023-08-14T12:15:40.692Z,2.20
2023-08-14T12:16:42.807Z,2.45
2023-08-14T12:17:45.081Z,4.20
2023-08-14T12:18:49.266Z,2.10
2023-08-14T12:19:51.459Z,1.90
2023-08-14T12:20:54.778Z,3.35
2023-08-14T12:21:57.978Z,3.35
2023-08-14T12:23:15.910Z,3.40
2023-08-14T12:24:19.020Z,4.97
2023-08-14T12:25:21.495Z,2.67
2023-08-14T12:26:24.169Z,4.28
2023-08-14T12:27:28.483Z,3.40
